sensor_id;sensor_type;location;lat;lon;timestamp;temperature;humidity
14357;DHT22;7262;48.764;9.166;2023-06-22T00:00:48;21.30;99.90
14357;DHT22;7262;48.764;9.166;2023-06-22T00:03:15;21.30;99.90
14357;DHT22;7262;48.764;9.166;2023-06-22T00:05:42;21.20;99.90
14357;DHT22;7262;48.764;9.166;2023-06-22T00:08:09;21.20;99.90
14357;DHT22;7262;48.764;9.166;2023-06-22T00:10:37;21.20;99.90
14357;DHT22;7262;48.764;9.166;2023-06-22T00:13:04;21.10;99.90
14357;DHT22;7262;48.764;9.166;2023-06-22T00:15:31;21.10;99.90
14357;DHT22;7262;48.764;9.166;2023-06-22T00:17:58;21.00;99.90
14357;DHT22;7262;48.764;9.166;2023-06-22T00:20:25;21.00;99.90
14357;DHT22;7262;48.764;9.166;2023-06-22T00:22:53;21.00;99.90
14357;DHT22;7262;48.764;9.166;2023-06-22T00:25:20;20.90;99.90
14357;DHT22;7262;48.764;9.166;2023-06-22T00:27:48;20.90;99.90
14357;DHT22;7262;48.764;9.166;2023-06-22T00:30:15;20.90;99.90
14357;DHT22;7262;48.764;9.166;2023-06-22T00:32:42;20.80;99.90
14357;DHT22;7262;48.764;9.166;2023-06-22T00:35:09;20.80;99.90
14357;DHT22;7262;48.764;9.166;2023-06-22T00:37:36;20.70;99.90
14357;DHT22;7262;48.764;9.166;2023-06-22T00:40:04;20.70;99.90
14357;DHT22;7262;48.764;9.166;2023-06-22T00:42:33;20.70;99.90
14357;DHT22;7262;48.764;9.166;2023-06-22T00:45:02;20.70;99.90
14357;DHT22;7262;48.764;9.166;2023-06-22T00:47:28;20.70;99.90
14357;DHT22;7262;48.764;9.166;2023-06-22T00:49:55;20.70;99.90
14357;DHT22;7262;48.764;9.166;2023-06-22T00:52:22;20.60;99.90
14357;DHT22;7262;48.764;9.166;2023-06-22T00:54:52;20.50;99.90
14357;DHT22;7262;48.764;9.166;2023-06-22T00:57:20;20.50;99.90
14357;DHT22;7262;48.764;9.166;2023-06-22T00:59:48;20.50;99.90
14357;DHT22;7262;48.764;9.166;2023-06-22T01:02:18;20.50;99.90
14357;DHT22;7262;48.764;9.166;2023-06-22T01:04:47;20.50;99.90
14357;DHT22;7262;48.764;9.166;2023-06-22T01:07:16;20.50;99.90
14357;DHT22;7262;48.764;9.166;2023-06-22T01:09:51;20.40;99.90
14357;DHT22;7262;48.764;9.166;2023-06-22T01:12:19;20.40;99.90
14357;DHT22;7262;48.764;9.166;2023-06-22T01:14:47;20.50;99.90
14357;DHT22;7262;48.764;9.166;2023-06-22T01:17:20;20.50;99.90
14357;DHT22;7262;48.764;9.166;2023-06-22T01:19:49;20.50;99.90
14357;DHT22;7262;48.764;9.166;2023-06-22T01:22:22;20.50;99.90
14357;DHT22;7262;48.764;9.166;2023-06-22T01:24:52;20.50;99.90
14357;DHT22;7262;48.764;9.166;2023-06-22T01:27:26;20.70;99.90
14357;DHT22;7262;48.764;9.166;2023-06-22T01:29:57;20.70;99.90
14357;DHT22;7262;48.764;9.166;2023-06-22T01:32:26;20.70;99.90
14357;DHT22;7262;48.764;9.166;2023-06-22T01:34:56;20.60;99.90
14357;DHT22;7262;48.764;9.166;2023-06-22T01:37:24;20.70;99.90
14357;DHT22;7262;48.764;9.166;2023-06-22T01:39:51;20.70;99.90
14357;DHT22;7262;48.764;9.166;2023-06-22T01:42:19;20.70;99.90
14357;DHT22;7262;48.764;9.166;2023-06-22T01:44:46;20.70;99.90
14357;DHT22;7262;48.764;9.166;2023-06-22T01:47:15;20.70;99.90
14357;DHT22;7262;48.764;9.166;2023-06-22T01:49:42;20.70;99.90
14357;DHT22;7262;48.764;9.166;2023-06-22T01:52:11;20.70;99.90
14357;DHT22;7262;48.764;9.166;2023-06-22T01:54:39;20.60;99.90
14357;DHT22;7262;48.764;9.166;2023-06-22T01:57:07;20.60;99.90
14357;DHT22;7262;48.764;9.166;2023-06-22T01:59:34;20.60;99.90
14357;DHT22;7262;48.764;9.166;2023-06-22T02:02:06;20.60;99.90
14357;DHT22;7262;48.764;9.166;2023-06-22T02:04:36;20.60;99.90
14357;DHT22;7262;48.764;9.166;2023-06-22T02:07:05;20.50;99.90
14357;DHT22;7262;48.764;9.166;2023-06-22T02:09:32;20.50;99.90
14357;DHT22;7262;48.764;9.166;2023-06-22T02:12:00;20.50;99.90
14357;DHT22;7262;48.764;9.166;2023-06-22T02:14:29;20.50;99.90
14357;DHT22;7262;48.764;9.166;2023-06-22T02:16:57;20.50;99.90
14357;DHT22;7262;48.764;9.166;2023-06-22T02:19:25;20.40;99.90
14357;DHT22;7262;48.764;9.166;2023-06-22T02:21:53;20.50;99.90
14357;DHT22;7262;48.764;9.166;2023-06-22T02:24:20;20.50;99.90
14357;DHT22;7262;48.764;9.166;2023-06-22T02:26:50;20.50;99.90
14357;DHT22;7262;48.764;9.166;2023-06-22T02:29:17;20.40;99.90
14357;DHT22;7262;48.764;9.166;2023-06-22T02:31:44;20.30;99.90
14357;DHT22;7262;48.764;9.166;2023-06-22T02:34:11;20.30;99.90
14357;DHT22;7262;48.764;9.166;2023-06-22T02:36:44;20.30;99.90
14357;DHT22;7262;48.764;9.166;2023-06-22T02:39:18;20.20;99.90
14357;DHT22;7262;48.764;9.166;2023-06-22T02:41:48;20.10;99.90
14357;DHT22;7262;48.764;9.166;2023-06-22T02:44:19;20.10;99.90
14357;DHT22;7262;48.764;9.166;2023-06-22T02:46:46;20.10;99.90
14357;DHT22;7262;48.764;9.166;2023-06-22T02:49:13;20.10;99.90
14357;DHT22;7262;48.764;9.166;2023-06-22T02:51:44;20.20;99.90
14357;DHT22;7262;48.764;9.166;2023-06-22T02:54:11;20.20;99.90
14357;DHT22;7262;48.764;9.166;2023-06-22T02:56:46;20.20;99.90
14357;DHT22;7262;48.764;9.166;2023-06-22T02:59:21;20.20;99.90
14357;DHT22;7262;48.764;9.166;2023-06-22T03:01:49;20.10;99.90
14357;DHT22;7262;48.764;9.166;2023-06-22T03:04:16;20.10;99.90
14357;DHT22;7262;48.764;9.166;2023-06-22T03:06:43;20.00;99.90
14357;DHT22;7262;48.764;9.166;2023-06-22T03:09:09;20.00;99.90
14357;DHT22;7262;48.764;9.166;2023-06-22T03:11:36;20.00;99.90
14357;DHT22;7262;48.764;9.166;2023-06-22T03:14:04;20.10;99.90
14357;DHT22;7262;48.764;9.166;2023-06-22T03:16:33;20.00;99.90
14357;DHT22;7262;48.764;9.166;2023-06-22T03:19:00;19.90;99.90
14357;DHT22;7262;48.764;9.166;2023-06-22T03:21:27;19.90;99.90
14357;DHT22;7262;48.764;9.166;2023-06-22T03:23:54;19.80;99.90
14357;DHT22;7262;48.764;9.166;2023-06-22T03:26:21;19.90;99.90
14357;DHT22;7262;48.764;9.166;2023-06-22T03:28:52;19.80;99.90
14357;DHT22;7262;48.764;9.166;2023-06-22T03:31:22;19.90;99.90
14357;DHT22;7262;48.764;9.166;2023-06-22T03:33:49;19.80;99.90
14357;DHT22;7262;48.764;9.166;2023-06-22T03:36:16;19.70;99.90
14357;DHT22;7262;48.764;9.166;2023-06-22T03:38:44;19.80;99.90
14357;DHT22;7262;48.764;9.166;2023-06-22T03:41:12;19.80;99.90
14357;DHT22;7262;48.764;9.166;2023-06-22T03:43:39;19.70;99.90
14357;DHT22;7262;48.764;9.166;2023-06-22T03:46:09;19.80;99.90
14357;DHT22;7262;48.764;9.166;2023-06-22T03:48:37;19.90;99.90
14357;DHT22;7262;48.764;9.166;2023-06-22T03:51:04;19.90;99.90
14357;DHT22;7262;48.764;9.166;2023-06-22T03:53:31;19.90;99.90
14357;DHT22;7262;48.764;9.166;2023-06-22T03:55:58;19.90;99.90
14357;DHT22;7262;48.764;9.166;2023-06-22T03:58:25;19.90;99.90
14357;DHT22;7262;48.764;9.166;2023-06-22T04:00:52;19.80;99.90
14357;DHT22;7262;48.764;9.166;2023-06-22T04:03:19;19.90;99.90
14357;DHT22;7262;48.764;9.166;2023-06-22T04:05:48;20.10;99.90
14357;DHT22;7262;48.764;9.166;2023-06-22T04:08:14;20.10;99.90
14357;DHT22;7262;48.764;9.166;2023-06-22T04:10:41;20.10;99.90
14357;DHT22;7262;48.764;9.166;2023-06-22T04:13:08;20.10;99.90
14357;DHT22;7262;48.764;9.166;2023-06-22T04:15:35;20.10;99.90
14357;DHT22;7262;48.764;9.166;2023-06-22T04:18:02;20.20;99.90
14357;DHT22;7262;48.764;9.166;2023-06-22T04:20:30;20.20;99.90
14357;DHT22;7262;48.764;9.166;2023-06-22T04:22:58;20.30;99.90
14357;DHT22;7262;48.764;9.166;2023-06-22T04:25:25;20.50;99.90
14357;DHT22;7262;48.764;9.166;2023-06-22T04:27:52;20.50;99.90
14357;DHT22;7262;48.764;9.166;2023-06-22T04:30:19;20.50;99.90
14357;DHT22;7262;48.764;9.166;2023-06-22T04:32:46;20.60;99.90
14357;DHT22;7262;48.764;9.166;2023-06-22T04:35:21;20.70;99.90
14357;DHT22;7262;48.764;9.166;2023-06-22T04:37:49;20.70;99.90
14357;DHT22;7262;48.764;9.166;2023-06-22T04:40:22;20.80;99.90
14357;DHT22;7262;48.764;9.166;2023-06-22T04:42:49;20.90;99.90
14357;DHT22;7262;48.764;9.166;2023-06-22T04:45:19;21.00;99.90
14357;DHT22;7262;48.764;9.166;2023-06-22T04:48:17;21.10;99.90
14357;DHT22;7262;48.764;9.166;2023-06-22T04:50:43;21.20;99.90
14357;DHT22;7262;48.764;9.166;2023-06-22T04:53:11;21.30;99.90
14357;DHT22;7262;48.764;9.166;2023-06-22T04:55:39;21.30;99.90
14357;DHT22;7262;48.764;9.166;2023-06-22T04:58:14;21.40;99.90
14357;DHT22;7262;48.764;9.166;2023-06-22T05:00:41;21.40;99.90
14357;DHT22;7262;48.764;9.166;2023-06-22T05:03:09;21.40;99.90
14357;DHT22;7262;48.764;9.166;2023-06-22T05:05:36;21.50;99.90
14357;DHT22;7262;48.764;9.166;2023-06-22T05:08:04;21.70;99.90
14357;DHT22;7262;48.764;9.166;2023-06-22T05:10:35;21.90;99.90
14357;DHT22;7262;48.764;9.166;2023-06-22T05:13:03;22.00;99.90
14357;DHT22;7262;48.764;9.166;2023-06-22T05:15:29;22.10;99.90
14357;DHT22;7262;48.764;9.166;2023-06-22T05:18:02;22.20;99.90
14357;DHT22;7262;48.764;9.166;2023-06-22T05:20:30;22.40;99.90
14357;DHT22;7262;48.764;9.166;2023-06-22T05:22:58;22.30;99.90
14357;DHT22;7262;48.764;9.166;2023-06-22T05:27:59;22.80;99.90
14357;DHT22;7262;48.764;9.166;2023-06-22T05:35:59;23.30;99.90
14357;DHT22;7262;48.764;9.166;2023-06-22T05:38:26;23.90;99.90
14357;DHT22;7262;48.764;9.166;2023-06-22T05:40:54;24.70;99.90
14357;DHT22;7262;48.764;9.166;2023-06-22T05:43:21;25.40;99.90
14357;DHT22;7262;48.764;9.166;2023-06-22T05:45:48;26.20;99.90
14357;DHT22;7262;48.764;9.166;2023-06-22T05:48:16;26.30;99.90
14357;DHT22;7262;48.764;9.166;2023-06-22T05:50:43;26.20;99.90
14357;DHT22;7262;48.764;9.166;2023-06-22T05:56:18;26.90;99.90
14357;DHT22;7262;48.764;9.166;2023-06-22T05:58:45;26.90;99.90
14357;DHT22;7262;48.764;9.166;2023-06-22T06:01:13;26.90;99.90
14357;DHT22;7262;48.764;9.166;2023-06-22T06:03:40;27.30;99.90
14357;DHT22;7262;48.764;9.166;2023-06-22T06:06:08;27.30;99.90
14357;DHT22;7262;48.764;9.166;2023-06-22T06:08:37;26.80;99.90
14357;DHT22;7262;48.764;9.166;2023-06-22T06:11:05;26.30;99.90
14357;DHT22;7262;48.764;9.166;2023-06-22T06:13:34;26.20;99.90
14357;DHT22;7262;48.764;9.166;2023-06-22T06:16:01;25.90;99.90
14357;DHT22;7262;48.764;9.166;2023-06-22T06:18:30;25.80;99.90
14357;DHT22;7262;48.764;9.166;2023-06-22T06:20:57;25.60;99.90
14357;DHT22;7262;48.764;9.166;2023-06-22T06:23:30;26.10;99.90
14357;DHT22;7262;48.764;9.166;2023-06-22T06:26:00;26.70;99.90
14357;DHT22;7262;48.764;9.166;2023-06-22T06:28:27;27.10;99.90
14357;DHT22;7262;48.764;9.166;2023-06-22T06:30:59;27.90;99.90
14357;DHT22;7262;48.764;9.166;2023-06-22T06:33:40;28.50;99.90
14357;DHT22;7262;48.764;9.166;2023-06-22T06:36:10;28.80;99.90
14357;DHT22;7262;48.764;9.166;2023-06-22T06:38:36;29.20;99.90
14357;DHT22;7262;48.764;9.166;2023-06-22T06:41:03;29.70;99.90
14357;DHT22;7262;48.764;9.166;2023-06-22T06:43:30;30.30;99.90
14357;DHT22;7262;48.764;9.166;2023-06-22T06:45:59;31.00;99.90
14357;DHT22;7262;48.764;9.166;2023-06-22T06:48:30;31.20;99.90
14357;DHT22;7262;48.764;9.166;2023-06-22T06:50:59;32.30;99.90
14357;DHT22;7262;48.764;9.166;2023-06-22T06:53:26;31.90;99.90
14357;DHT22;7262;48.764;9.166;2023-06-22T06:55:54;31.80;99.90
14357;DHT22;7262;48.764;9.166;2023-06-22T06:58:23;31.60;99.90
14357;DHT22;7262;48.764;9.166;2023-06-22T07:00:54;31.70;99.90
14357;DHT22;7262;48.764;9.166;2023-06-22T07:03:25;32.40;99.90
14357;DHT22;7262;48.764;9.166;2023-06-22T07:06:06;32.60;99.90
14357;DHT22;7262;48.764;9.166;2023-06-22T07:11:35;33.50;99.90
14357;DHT22;7262;48.764;9.166;2023-06-22T07:14:04;32.80;99.90
14357;DHT22;7262;48.764;9.166;2023-06-22T07:16:30;33.20;99.90
14357;DHT22;7262;48.764;9.166;2023-06-22T07:19:03;33.30;99.90
14357;DHT22;7262;48.764;9.166;2023-06-22T07:21:30;33.00;99.90
14357;DHT22;7262;48.764;9.166;2023-06-22T07:26:28;32.50;99.90
14357;DHT22;7262;48.764;9.166;2023-06-22T07:28:56;33.00;99.90
14357;DHT22;7262;48.764;9.166;2023-06-22T07:33:59;33.40;99.90
14357;DHT22;7262;48.764;9.166;2023-06-22T07:36:29;33.90;99.90
14357;DHT22;7262;48.764;9.166;2023-06-22T07:38:56;33.80;99.90
14357;DHT22;7262;48.764;9.166;2023-06-22T07:41:23;33.00;99.90
14357;DHT22;7262;48.764;9.166;2023-06-22T07:43:54;32.60;99.90
14357;DHT22;7262;48.764;9.166;2023-06-22T07:46:23;32.90;99.90
14357;DHT22;7262;48.764;9.166;2023-06-22T07:48:50;34.20;99.90
14357;DHT22;7262;48.764;9.166;2023-06-22T07:51:18;34.50;99.90
14357;DHT22;7262;48.764;9.166;2023-06-22T07:53:49;34.90;99.90
14357;DHT22;7262;48.764;9.166;2023-06-22T07:56:18;34.70;99.90
14357;DHT22;7262;48.764;9.166;2023-06-22T07:58:47;34.90;99.90
14357;DHT22;7262;48.764;9.166;2023-06-22T08:01:14;34.70;99.90
14357;DHT22;7262;48.764;9.166;2023-06-22T08:03:41;34.70;99.90
14357;DHT22;7262;48.764;9.166;2023-06-22T08:27:29;34.30;99.90
14357;DHT22;7262;48.764;9.166;2023-06-22T08:32:39;32.60;99.90
14357;DHT22;7262;48.764;9.166;2023-06-22T08:35:06;32.10;99.90
14357;DHT22;7262;48.764;9.166;2023-06-22T08:37:35;32.10;99.90
14357;DHT22;7262;48.764;9.166;2023-06-22T08:42:43;33.20;99.90
14357;DHT22;7262;48.764;9.166;2023-06-22T08:47:46;32.30;99.90
14357;DHT22;7262;48.764;9.166;2023-06-22T08:50:13;32.60;99.90
14357;DHT22;7262;48.764;9.166;2023-06-22T08:55:21;31.80;99.90
14357;DHT22;7262;48.764;9.166;2023-06-22T08:57:51;31.60;99.90
14357;DHT22;7262;48.764;9.166;2023-06-22T09:00:18;32.50;99.90
14357;DHT22;7262;48.764;9.166;2023-06-22T09:02:45;33.60;99.90
14357;DHT22;7262;48.764;9.166;2023-06-22T09:05:13;33.20;99.90
14357;DHT22;7262;48.764;9.166;2023-06-22T09:07:41;32.50;99.90
14357;DHT22;7262;48.764;9.166;2023-06-22T09:10:08;32.30;99.90
14357;DHT22;7262;48.764;9.166;2023-06-22T09:12:35;31.90;99.90
14357;DHT22;7262;48.764;9.166;2023-06-22T09:15:06;32.00;99.90
14357;DHT22;7262;48.764;9.166;2023-06-22T09:17:33;32.30;99.90
14357;DHT22;7262;48.764;9.166;2023-06-22T09:20:02;32.20;99.90
14357;DHT22;7262;48.764;9.166;2023-06-22T09:22:31;32.90;99.90
14357;DHT22;7262;48.764;9.166;2023-06-22T09:24:58;33.80;99.90
14357;DHT22;7262;48.764;9.166;2023-06-22T09:27:26;34.70;99.90
14357;DHT22;7262;48.764;9.166;2023-06-22T09:29:53;36.00;99.90
14357;DHT22;7262;48.764;9.166;2023-06-22T09:32:21;36.70;99.90
14357;DHT22;7262;48.764;9.166;2023-06-22T09:34:48;36.90;99.90
14357;DHT22;7262;48.764;9.166;2023-06-22T09:37:16;36.70;99.90
14357;DHT22;7262;48.764;9.166;2023-06-22T09:39:42;36.90;99.90
14357;DHT22;7262;48.764;9.166;2023-06-22T09:42:09;37.10;99.90
14357;DHT22;7262;48.764;9.166;2023-06-22T09:44:37;37.00;99.90
14357;DHT22;7262;48.764;9.166;2023-06-22T09:47:04;37.50;99.90
14357;DHT22;7262;48.764;9.166;2023-06-22T09:49:32;37.50;99.90
14357;DHT22;7262;48.764;9.166;2023-06-22T09:51:59;37.20;99.90
14357;DHT22;7262;48.764;9.166;2023-06-22T09:54:33;37.60;99.90
14357;DHT22;7262;48.764;9.166;2023-06-22T09:57:00;37.20;99.90
14357;DHT22;7262;48.764;9.166;2023-06-22T09:59:28;36.60;99.90
14357;DHT22;7262;48.764;9.166;2023-06-22T10:01:54;35.40;99.90
14357;DHT22;7262;48.764;9.166;2023-06-22T10:04:21;35.10;99.90
14357;DHT22;7262;48.764;9.166;2023-06-22T10:06:51;35.30;99.90
14357;DHT22;7262;48.764;9.166;2023-06-22T10:09:18;34.20;99.90
14357;DHT22;7262;48.764;9.166;2023-06-22T10:11:45;33.70;99.90
14357;DHT22;7262;48.764;9.166;2023-06-22T10:14:12;33.50;99.90
14357;DHT22;7262;48.764;9.166;2023-06-22T10:16:39;33.50;99.90
14357;DHT22;7262;48.764;9.166;2023-06-22T10:19:06;33.30;99.90
14357;DHT22;7262;48.764;9.166;2023-06-22T10:21:34;33.50;99.90
14357;DHT22;7262;48.764;9.166;2023-06-22T10:24:06;33.80;99.90
14357;DHT22;7262;48.764;9.166;2023-06-22T10:26:33;33.80;99.90
14357;DHT22;7262;48.764;9.166;2023-06-22T10:29:01;33.70;99.90
14357;DHT22;7262;48.764;9.166;2023-06-22T10:31:28;33.80;99.90
14357;DHT22;7262;48.764;9.166;2023-06-22T10:34:03;34.10;99.90
14357;DHT22;7262;48.764;9.166;2023-06-22T10:36:30;34.70;99.90
14357;DHT22;7262;48.764;9.166;2023-06-22T10:38:56;35.20;99.90
14357;DHT22;7262;48.764;9.166;2023-06-22T10:41:26;35.60;99.90
14357;DHT22;7262;48.764;9.166;2023-06-22T10:43:55;36.30;99.90
14357;DHT22;7262;48.764;9.166;2023-06-22T10:54:22;35.70;99.90
14357;DHT22;7262;48.764;9.166;2023-06-22T10:56:54;35.10;99.90
14357;DHT22;7262;48.764;9.166;2023-06-22T10:59:20;34.80;99.90
14357;DHT22;7262;48.764;9.166;2023-06-22T11:01:49;34.50;99.90
14357;DHT22;7262;48.764;9.166;2023-06-22T11:04:16;34.20;99.90
14357;DHT22;7262;48.764;9.166;2023-06-22T11:06:43;33.90;99.90
14357;DHT22;7262;48.764;9.166;2023-06-22T11:11:43;34.00;99.90
14357;DHT22;7262;48.764;9.166;2023-06-22T11:14:11;34.00;99.90
14357;DHT22;7262;48.764;9.166;2023-06-22T11:16:38;33.80;99.90
14357;DHT22;7262;48.764;9.166;2023-06-22T11:19:05;33.80;99.90
14357;DHT22;7262;48.764;9.166;2023-06-22T11:21:32;33.70;99.90
14357;DHT22;7262;48.764;9.166;2023-06-22T11:23:59;33.40;99.90
14357;DHT22;7262;48.764;9.166;2023-06-22T11:26:27;33.10;99.90
14357;DHT22;7262;48.764;9.166;2023-06-22T11:28:54;32.90;99.90
14357;DHT22;7262;48.764;9.166;2023-06-22T11:31:23;32.40;99.90
14357;DHT22;7262;48.764;9.166;2023-06-22T11:33:49;32.20;99.90
14357;DHT22;7262;48.764;9.166;2023-06-22T11:38:52;32.80;99.90
14357;DHT22;7262;48.764;9.166;2023-06-22T11:41:19;33.30;99.90
14357;DHT22;7262;48.764;9.166;2023-06-22T11:49:08;34.50;99.90
14357;DHT22;7262;48.764;9.166;2023-06-22T11:51:36;34.70;99.90
14357;DHT22;7262;48.764;9.166;2023-06-22T11:54:03;35.10;99.90
14357;DHT22;7262;48.764;9.166;2023-06-22T11:56:32;35.20;99.90
14357;DHT22;7262;48.764;9.166;2023-06-22T11:59:00;34.40;99.90
14357;DHT22;7262;48.764;9.166;2023-06-22T12:09:39;33.80;99.90
14357;DHT22;7262;48.764;9.166;2023-06-22T12:12:07;33.80;99.90
14357;DHT22;7262;48.764;9.166;2023-06-22T12:17:12;32.90;99.90
14357;DHT22;7262;48.764;9.166;2023-06-22T12:19:54;32.70;99.90
14357;DHT22;7262;48.764;9.166;2023-06-22T12:22:21;32.70;99.90
14357;DHT22;7262;48.764;9.166;2023-06-22T12:24:52;32.60;99.90
14357;DHT22;7262;48.764;9.166;2023-06-22T12:27:20;32.60;99.90
14357;DHT22;7262;48.764;9.166;2023-06-22T12:29:48;32.40;99.90
14357;DHT22;7262;48.764;9.166;2023-06-22T12:32:15;32.30;99.90
14357;DHT22;7262;48.764;9.166;2023-06-22T12:34:43;32.30;99.90
14357;DHT22;7262;48.764;9.166;2023-06-22T12:37:10;32.40;99.90
14357;DHT22;7262;48.764;9.166;2023-06-22T12:42:14;32.20;99.90
14357;DHT22;7262;48.764;9.166;2023-06-22T12:44:41;32.00;99.90
14357;DHT22;7262;48.764;9.166;2023-06-22T12:47:09;31.90;99.90
14357;DHT22;7262;48.764;9.166;2023-06-22T12:49:36;31.90;99.90
14357;DHT22;7262;48.764;9.166;2023-06-22T12:52:08;32.00;99.90
14357;DHT22;7262;48.764;9.166;2023-06-22T12:54:34;32.00;99.90
14357;DHT22;7262;48.764;9.166;2023-06-22T12:57:01;31.90;99.90
14357;DHT22;7262;48.764;9.166;2023-06-22T12:59:30;31.90;99.90
14357;DHT22;7262;48.764;9.166;2023-06-22T13:01:57;31.50;99.90
14357;DHT22;7262;48.764;9.166;2023-06-22T13:04:25;31.50;99.90
14357;DHT22;7262;48.764;9.166;2023-06-22T13:06:51;31.60;99.90
14357;DHT22;7262;48.764;9.166;2023-06-22T13:09:18;31.90;99.90
14357;DHT22;7262;48.764;9.166;2023-06-22T13:11:45;31.90;99.90
14357;DHT22;7262;48.764;9.166;2023-06-22T13:14:12;31.80;99.90
14357;DHT22;7262;48.764;9.166;2023-06-22T13:16:42;31.90;99.90
14357;DHT22;7262;48.764;9.166;2023-06-22T13:21:45;32.10;99.90
14357;DHT22;7262;48.764;9.166;2023-06-22T13:24:12;32.40;99.90
14357;DHT22;7262;48.764;9.166;2023-06-22T13:26:39;32.70;99.90
14357;DHT22;7262;48.764;9.166;2023-06-22T13:31:43;32.90;99.90
14357;DHT22;7262;48.764;9.166;2023-06-22T13:34:11;32.90;99.90
14357;DHT22;7262;48.764;9.166;2023-06-22T13:36:38;32.90;99.90
14357;DHT22;7262;48.764;9.166;2023-06-22T13:39:06;32.80;99.90
14357;DHT22;7262;48.764;9.166;2023-06-22T13:41:33;33.00;99.90
14357;DHT22;7262;48.764;9.166;2023-06-22T13:43:59;32.70;99.90
14357;DHT22;7262;48.764;9.166;2023-06-22T13:49:03;32.90;99.90
14357;DHT22;7262;48.764;9.166;2023-06-22T13:51:51;33.00;99.90
14357;DHT22;7262;48.764;9.166;2023-06-22T13:56:54;32.60;99.90
14357;DHT22;7262;48.764;9.166;2023-06-22T13:59:21;32.80;99.90
14357;DHT22;7262;48.764;9.166;2023-06-22T14:04:28;33.10;99.90
14357;DHT22;7262;48.764;9.166;2023-06-22T14:06:55;33.20;99.90
14357;DHT22;7262;48.764;9.166;2023-06-22T14:09:22;33.50;99.90
14357;DHT22;7262;48.764;9.166;2023-06-22T14:11:49;33.80;99.90
14357;DHT22;7262;48.764;9.166;2023-06-22T14:14:16;34.20;99.90
14357;DHT22;7262;48.764;9.166;2023-06-22T14:16:43;35.20;99.90
14357;DHT22;7262;48.764;9.166;2023-06-22T14:19:10;36.00;99.90
14357;DHT22;7262;48.764;9.166;2023-06-22T14:21:38;36.90;99.90
14357;DHT22;7262;48.764;9.166;2023-06-22T14:24:05;37.50;99.90
14357;DHT22;7262;48.764;9.166;2023-06-22T14:26:31;37.90;99.90
14357;DHT22;7262;48.764;9.166;2023-06-22T14:28:58;37.40;99.90
14357;DHT22;7262;48.764;9.166;2023-06-22T14:31:25;36.40;99.90
14357;DHT22;7262;48.764;9.166;2023-06-22T14:33:52;35.80;99.90
14357;DHT22;7262;48.764;9.166;2023-06-22T14:36:19;35.30;99.90
14357;DHT22;7262;48.764;9.166;2023-06-22T14:38:47;34.90;99.90
14357;DHT22;7262;48.764;9.166;2023-06-22T14:41:15;34.80;99.90
14357;DHT22;7262;48.764;9.166;2023-06-22T14:43:43;34.60;99.90
14357;DHT22;7262;48.764;9.166;2023-06-22T14:46:10;34.30;99.90
14357;DHT22;7262;48.764;9.166;2023-06-22T14:48:38;34.20;99.90
14357;DHT22;7262;48.764;9.166;2023-06-22T14:51:05;34.20;99.90
14357;DHT22;7262;48.764;9.166;2023-06-22T14:53:31;34.20;99.90
14357;DHT22;7262;48.764;9.166;2023-06-22T14:56:00;34.30;98.00
14357;DHT22;7262;48.764;9.166;2023-06-22T14:58:30;34.30;95.90
14357;DHT22;7262;48.764;9.166;2023-06-22T15:00:58;34.10;95.10
14357;DHT22;7262;48.764;9.166;2023-06-22T15:03:25;33.80;95.20
14357;DHT22;7262;48.764;9.166;2023-06-22T15:05:56;33.80;95.10
14357;DHT22;7262;48.764;9.166;2023-06-22T15:08:23;33.60;94.90
14357;DHT22;7262;48.764;9.166;2023-06-22T15:10:51;33.40;95.00
14357;DHT22;7262;48.764;9.166;2023-06-22T15:13:19;33.40;95.20
14357;DHT22;7262;48.764;9.166;2023-06-22T15:15:48;33.50;95.20
14357;DHT22;7262;48.764;9.166;2023-06-22T15:18:15;33.80;94.80
14357;DHT22;7262;48.764;9.166;2023-06-22T15:20:46;33.80;94.50
14357;DHT22;7262;48.764;9.166;2023-06-22T15:23:13;33.80;94.40
14357;DHT22;7262;48.764;9.166;2023-06-22T15:25:40;34.00;94.10
14357;DHT22;7262;48.764;9.166;2023-06-22T15:28:07;34.00;94.10
14357;DHT22;7262;48.764;9.166;2023-06-22T15:30:35;33.80;94.00
14357;DHT22;7262;48.764;9.166;2023-06-22T15:33:02;33.40;94.20
14357;DHT22;7262;48.764;9.166;2023-06-22T15:35:29;33.20;94.00
14357;DHT22;7262;48.764;9.166;2023-06-22T15:37:56;33.10;94.60
14357;DHT22;7262;48.764;9.166;2023-06-22T15:40:23;33.30;93.60
14357;DHT22;7262;48.764;9.166;2023-06-22T15:42:50;33.50;93.40
14357;DHT22;7262;48.764;9.166;2023-06-22T15:45:16;33.40;93.40
14357;DHT22;7262;48.764;9.166;2023-06-22T15:47:45;33.40;93.60
14357;DHT22;7262;48.764;9.166;2023-06-22T15:50:13;33.40;93.70
14357;DHT22;7262;48.764;9.166;2023-06-22T15:52:40;33.30;93.80
14357;DHT22;7262;48.764;9.166;2023-06-22T15:55:08;33.10;93.90
14357;DHT22;7262;48.764;9.166;2023-06-22T15:57:35;32.90;94.10
14357;DHT22;7262;48.764;9.166;2023-06-22T16:00:02;32.70;94.40
14357;DHT22;7262;48.764;9.166;2023-06-22T16:02:30;32.60;94.70
14357;DHT22;7262;48.764;9.166;2023-06-22T16:04:58;32.50;95.20
14357;DHT22;7262;48.764;9.166;2023-06-22T16:07:26;32.30;95.70
14357;DHT22;7262;48.764;9.166;2023-06-22T16:09:53;31.80;96.10
14357;DHT22;7262;48.764;9.166;2023-06-22T16:12:20;31.80;96.40
14357;DHT22;7262;48.764;9.166;2023-06-22T16:14:47;31.70;96.60
14357;DHT22;7262;48.764;9.166;2023-06-22T16:17:16;31.60;96.90
14357;DHT22;7262;48.764;9.166;2023-06-22T16:19:43;31.60;97.10
14357;DHT22;7262;48.764;9.166;2023-06-22T16:22:13;31.40;97.30
14357;DHT22;7262;48.764;9.166;2023-06-22T16:24:42;31.30;96.60
14357;DHT22;7262;48.764;9.166;2023-06-22T16:27:09;31.10;97.50
14357;DHT22;7262;48.764;9.166;2023-06-22T16:29:36;31.20;97.90
14357;DHT22;7262;48.764;9.166;2023-06-22T16:32:04;31.10;98.40
14357;DHT22;7262;48.764;9.166;2023-06-22T16:34:31;31.00;98.80
14357;DHT22;7262;48.764;9.166;2023-06-22T16:36:58;31.00;99.10
14357;DHT22;7262;48.764;9.166;2023-06-22T16:39:26;30.90;98.80
14357;DHT22;7262;48.764;9.166;2023-06-22T16:41:58;30.70;98.90
14357;DHT22;7262;48.764;9.166;2023-06-22T16:44:27;30.70;99.00
14357;DHT22;7262;48.764;9.166;2023-06-22T16:46:54;30.60;99.10
14357;DHT22;7262;48.764;9.166;2023-06-22T16:49:20;30.70;99.10
14357;DHT22;7262;48.764;9.166;2023-06-22T16:51:50;30.50;99.30
14357;DHT22;7262;48.764;9.166;2023-06-22T16:54:19;30.50;98.70
14357;DHT22;7262;48.764;9.166;2023-06-22T16:56:47;30.30;98.90
14357;DHT22;7262;48.764;9.166;2023-06-22T16:59:14;30.20;99.30
14357;DHT22;7262;48.764;9.166;2023-06-22T17:01:44;30.20;99.50
14357;DHT22;7262;48.764;9.166;2023-06-22T17:04:14;30.20;99.70
14357;DHT22;7262;48.764;9.166;2023-06-22T17:06:42;30.20;99.90
14357;DHT22;7262;48.764;9.166;2023-06-22T17:09:13;30.10;99.90
14357;DHT22;7262;48.764;9.166;2023-06-22T17:11:42;30.10;99.90
14357;DHT22;7262;48.764;9.166;2023-06-22T17:14:10;30.10;99.90
14357;DHT22;7262;48.764;9.166;2023-06-22T17:16:37;29.90;99.90
14357;DHT22;7262;48.764;9.166;2023-06-22T17:19:08;29.90;99.90
14357;DHT22;7262;48.764;9.166;2023-06-22T17:21:35;29.80;99.90
14357;DHT22;7262;48.764;9.166;2023-06-22T17:24:02;29.60;99.90
14357;DHT22;7262;48.764;9.166;2023-06-22T17:26:29;29.60;99.90